This is the latest recevied weather packets stored in our database for station/object WX5HOT. If no packets are shown the sender has not sent any weather packets the latest 10 day(s).
| Time | Temp. | Humidity | Pressure | Rain* | Wind** | Luminosity | Snow |
|---|---|---|---|---|---|---|---|
| 1777328646 | 26.11° C | 80% | 1060.1 hPa | 0 mm | - | 324 W/m² | - |
| 1777328343 | 26.11° C | 78% | 1060.3 hPa | 0 mm | - | 216 W/m² | - |
| 1777328042 | 26.67° C | 77% | 1060.1 hPa | 0 mm | - | 426 W/m² | - |
| 1777327740 | 26.67° C | 77% | 1060.2 hPa | 0 mm | - | 411 W/m² | - |
| 1777327437 | 26.67° C | 80% | 1059.9 hPa | 0 mm | - | 407 W/m² | - |
| 1777327134 | 26.11° C | 78% | 1060.2 hPa | 0 mm | - | 415 W/m² | - |
| 1777326831 | 26.11° C | 79% | 1059.9 hPa | 0 mm | - | 387 W/m² | - |
| 1777326528 | 26.11° C | 79% | 1060.1 hPa | 0 mm | - | 440 W/m² | - |
| 1777326225 | 26.11° C | 79% | 1059.8 hPa | 0 mm | - | 438 W/m² | - |
| 1777325923 | 26.11° C | 78% | 1060.1 hPa | 0 mm | - | 456 W/m² | - |
| 1777325621 | 26.11° C | 78% | 1059.9 hPa | 0 mm | - | 476 W/m² | - |
| 1777325319 | 26.11° C | 78% | 1060.1 hPa | 0 mm | - | 512 W/m² | - |
| 1777325017 | 26.11° C | 79% | 1060.1 hPa | 0 mm | - | 553 W/m² | - |
| 1777324713 | 26.67° C | 76% | 1060.2 hPa | 0 mm | - | 291 W/m² | - |
| 1777324411 | 26.67° C | 77% | 1060.2 hPa | 0 mm | - | 523 W/m² | - |
| 1777324108 | 26.11° C | 78% | 1060.1 hPa | 0 mm | - | 523 W/m² | - |
| 1777323806 | 26.11° C | 78% | 1060.2 hPa | 0 mm | - | 584 W/m² | - |
| 1777323502 | 26.67° C | 77% | 1060.1 hPa | 0 mm | - | 477 W/m² | - |
| 1777323200 | 26.11° C | 79% | 1060.1 hPa | 0 mm | - | 673 W/m² | - |
| 1777322897 | 26.11° C | 78% | 1060.1 hPa | 0 mm | - | 329 W/m² | - |
| 1777322596 | 25.56° C | 80% | 1059.9 hPa | 0 mm | - | 663 W/m² | - |
| 1777322293 | 26.11° C | 79% | 1059.9 hPa | 0 mm | - | 307 W/m² | - |
| 1777321989 | 25.56° C | 79% | 1059.9 hPa | 0 mm | - | 307 W/m² | - |
| 1777321686 | 25.56° C | 81% | 1060.1 hPa | 0 mm | - | 360 W/m² | - |
| 1777321382 | 25.56° C | 81% | 1060.2 hPa | 0 mm | - | 679 W/m² | - |
* Rain latest hour (hover to see other rain measurements)
** Current wind speed in m/s (hover to see current wind gust speed)